YCN weather

Cochrane Airport
Cochrane, Ontario, Canada

Public forecast

Using degrees Celsius for public forecast. Weather courtesy of forecast.io.

Closest aviation weather report (METAR) to Cochrane Airport

Closest report is Timmins/Victor M. Power, 35.2 nm (65.2 km) SSW. Retrieved 2020/06/02 07:48 UTC (19 minutes ago):

CYTS 020748Z 14006KT 15SM FEW030 BKN040 OVC070 10/09 A2983 RMK SC2SC4AC2 SLP106

Closest aviation forecast (TAF) to Cochrane Airport

Closest forecast is Timmins/Victor M. Power, 35.2 nm (65.2 km) SSW. Retrieved 2020/06/02 08:33 UTC (0 seconds ago):

TAF CYTS 020730Z 0208/0220 13005KT P6SM -RA FEW040 OVC070 TEMPO 0208/0211 3SM -RA BR BKN020 OVC040 FM021100 16008G18KT P6SM -RA SCT010 OVC025 TEMPO 0211/0220 4SM -RA BR OVC010 BECMG 0218/0220 30005KT RMK NXT FCST BY 021400Z